sensor_id;sensor_type;location;lat;lon;timestamp;P1;durP1;ratioP1;P2;durP2;ratioP2
691;SDS011;328;50.086;8.576;2023-01-19T00:01:41;8.75;;;6.88;;
691;SDS011;328;50.086;8.576;2023-01-19T00:04:09;9.13;;;6.38;;
691;SDS011;328;50.086;8.576;2023-01-19T00:06:36;9.98;;;5.95;;
691;SDS011;328;50.086;8.576;2023-01-19T00:09:04;8.05;;;6.30;;
691;SDS011;328;50.086;8.576;2023-01-19T00:11:31;13.23;;;7.00;;
691;SDS011;328;50.086;8.576;2023-01-19T00:13:59;10.48;;;6.03;;
691;SDS011;328;50.086;8.576;2023-01-19T00:16:28;14.95;;;7.15;;
691;SDS011;328;50.086;8.576;2023-01-19T00:18:55;11.52;;;7.50;;
691;SDS011;328;50.086;8.576;2023-01-19T00:21:23;10.77;;;6.53;;
691;SDS011;328;50.086;8.576;2023-01-19T00:23:50;11.43;;;7.50;;
691;SDS011;328;50.086;8.576;2023-01-19T00:26:18;11.15;;;7.15;;
691;SDS011;328;50.086;8.576;2023-01-19T00:28:47;12.02;;;7.22;;
691;SDS011;328;50.086;8.576;2023-01-19T00:31:15;9.80;;;6.65;;
691;SDS011;328;50.086;8.576;2023-01-19T00:33:47;11.60;;;7.10;;
691;SDS011;328;50.086;8.576;2023-01-19T00:36:16;8.57;;;6.75;;
691;SDS011;328;50.086;8.576;2023-01-19T00:38:44;10.32;;;8.00;;
691;SDS011;328;50.086;8.576;2023-01-19T00:41:12;15.13;;;7.72;;
691;SDS011;328;50.086;8.576;2023-01-19T00:43:40;11.40;;;8.65;;
691;SDS011;328;50.086;8.576;2023-01-19T00:46:06;11.68;;;7.20;;
691;SDS011;328;50.086;8.576;2023-01-19T00:48:35;10.15;;;6.88;;
691;SDS011;328;50.086;8.576;2023-01-19T00:51:04;15.38;;;8.00;;
691;SDS011;328;50.086;8.576;2023-01-19T00:53:31;10.05;;;7.57;;
691;SDS011;328;50.086;8.576;2023-01-19T00:55:59;11.52;;;7.50;;
691;SDS011;328;50.086;8.576;2023-01-19T00:58:26;13.27;;;8.10;;
691;SDS011;328;50.086;8.576;2023-01-19T01:00:54;11.43;;;7.20;;
691;SDS011;328;50.086;8.576;2023-01-19T01:03:23;15.20;;;8.60;;
691;SDS011;328;50.086;8.576;2023-01-19T01:05:53;9.75;;;6.03;;
691;SDS011;328;50.086;8.576;2023-01-19T01:08:21;10.95;;;8.00;;
691;SDS011;328;50.086;8.576;2023-01-19T01:10:49;9.07;;;6.63;;
691;SDS011;328;50.086;8.576;2023-01-19T01:13:17;9.27;;;6.55;;
691;SDS011;328;50.086;8.576;2023-01-19T01:15:50;12.07;;;8.05;;
691;SDS011;328;50.086;8.576;2023-01-19T01:18:17;11.70;;;8.13;;
691;SDS011;328;50.086;8.576;2023-01-19T01:20:45;17.45;;;6.68;;
691;SDS011;328;50.086;8.576;2023-01-19T01:23:13;10.00;;;6.88;;
691;SDS011;328;50.086;8.576;2023-01-19T01:25:42;11.63;;;7.50;;
691;SDS011;328;50.086;8.576;2023-01-19T01:28:11;11.05;;;7.38;;
691;SDS011;328;50.086;8.576;2023-01-19T01:30:39;10.98;;;6.65;;
691;SDS011;328;50.086;8.576;2023-01-19T01:33:08;10.95;;;7.40;;
691;SDS011;328;50.086;8.576;2023-01-19T01:35:36;12.18;;;7.10;;
691;SDS011;328;50.086;8.576;2023-01-19T01:38:04;14.55;;;7.60;;
691;SDS011;328;50.086;8.576;2023-01-19T01:40:32;16.23;;;7.10;;
691;SDS011;328;50.086;8.576;2023-01-19T01:43:01;10.60;;;6.70;;
691;SDS011;328;50.086;8.576;2023-01-19T01:45:30;15.20;;;8.38;;
691;SDS011;328;50.086;8.576;2023-01-19T01:48:01;8.95;;;6.20;;
691;SDS011;328;50.086;8.576;2023-01-19T01:50:31;10.40;;;6.53;;
691;SDS011;328;50.086;8.576;2023-01-19T01:53:00;17.65;;;8.10;;
691;SDS011;328;50.086;8.576;2023-01-19T01:55:33;9.30;;;7.22;;
691;SDS011;328;50.086;8.576;2023-01-19T01:58:03;12.55;;;7.38;;
691;SDS011;328;50.086;8.576;2023-01-19T02:00:31;12.30;;;8.20;;
691;SDS011;328;50.086;8.576;2023-01-19T02:03:20;13.15;;;7.28;;
691;SDS011;328;50.086;8.576;2023-01-19T02:05:47;10.13;;;7.43;;
691;SDS011;328;50.086;8.576;2023-01-19T02:08:16;11.75;;;7.15;;
691;SDS011;328;50.086;8.576;2023-01-19T02:11:04;9.18;;;6.07;;
691;SDS011;328;50.086;8.576;2023-01-19T02:13:51;8.43;;;6.35;;
691;SDS011;328;50.086;8.576;2023-01-19T02:16:19;10.75;;;6.60;;
691;SDS011;328;50.086;8.576;2023-01-19T02:18:46;13.38;;;7.63;;
691;SDS011;328;50.086;8.576;2023-01-19T02:21:15;10.70;;;6.60;;
691;SDS011;328;50.086;8.576;2023-01-19T02:23:48;14.35;;;8.50;;
691;SDS011;328;50.086;8.576;2023-01-19T02:26:17;11.68;;;7.30;;
691;SDS011;328;50.086;8.576;2023-01-19T02:28:46;12.32;;;7.47;;
691;SDS011;328;50.086;8.576;2023-01-19T02:31:16;10.43;;;7.20;;
691;SDS011;328;50.086;8.576;2023-01-19T02:33:44;9.55;;;7.07;;
691;SDS011;328;50.086;8.576;2023-01-19T02:36:12;12.00;;;7.28;;
691;SDS011;328;50.086;8.576;2023-01-19T02:38:41;9.77;;;6.75;;
691;SDS011;328;50.086;8.576;2023-01-19T02:41:13;14.75;;;8.77;;
691;SDS011;328;50.086;8.576;2023-01-19T02:43:43;12.75;;;9.00;;
691;SDS011;328;50.086;8.576;2023-01-19T02:46:12;11.70;;;8.50;;
691;SDS011;328;50.086;8.576;2023-01-19T02:48:40;14.20;;;8.10;;
691;SDS011;328;50.086;8.576;2023-01-19T02:51:10;10.35;;;7.70;;
691;SDS011;328;50.086;8.576;2023-01-19T02:53:48;12.20;;;7.85;;
691;SDS011;328;50.086;8.576;2023-01-19T02:56:36;12.45;;;7.65;;
691;SDS011;328;50.086;8.576;2023-01-19T02:59:08;12.33;;;7.63;;
691;SDS011;328;50.086;8.576;2023-01-19T03:01:45;10.73;;;6.97;;
691;SDS011;328;50.086;8.576;2023-01-19T03:04:23;14.07;;;7.35;;
691;SDS011;328;50.086;8.576;2023-01-19T03:06:57;11.95;;;7.05;;
691;SDS011;328;50.086;8.576;2023-01-19T03:09:27;12.65;;;7.40;;
691;SDS011;328;50.086;8.576;2023-01-19T03:12:01;11.88;;;6.43;;
691;SDS011;328;50.086;8.576;2023-01-19T03:14:33;11.23;;;7.85;;
691;SDS011;328;50.086;8.576;2023-01-19T03:17:05;11.55;;;8.48;;
691;SDS011;328;50.086;8.576;2023-01-19T03:19:35;10.30;;;8.30;;
691;SDS011;328;50.086;8.576;2023-01-19T03:22:06;15.48;;;7.32;;
691;SDS011;328;50.086;8.576;2023-01-19T03:24:37;14.80;;;7.88;;
691;SDS011;328;50.086;8.576;2023-01-19T03:27:09;13.85;;;8.00;;
691;SDS011;328;50.086;8.576;2023-01-19T03:29:41;10.93;;;7.43;;
691;SDS011;328;50.086;8.576;2023-01-19T03:32:13;10.68;;;7.85;;
691;SDS011;328;50.086;8.576;2023-01-19T03:34:42;10.27;;;7.70;;
691;SDS011;328;50.086;8.576;2023-01-19T03:37:10;11.10;;;8.23;;
691;SDS011;328;50.086;8.576;2023-01-19T03:39:39;11.10;;;7.88;;
691;SDS011;328;50.086;8.576;2023-01-19T03:42:09;10.30;;;7.50;;
691;SDS011;328;50.086;8.576;2023-01-19T03:44:38;10.18;;;7.28;;
691;SDS011;328;50.086;8.576;2023-01-19T03:47:08;13.15;;;7.38;;
691;SDS011;328;50.086;8.576;2023-01-19T03:49:37;12.80;;;7.55;;
691;SDS011;328;50.086;8.576;2023-01-19T03:52:05;12.82;;;8.30;;
691;SDS011;328;50.086;8.576;2023-01-19T03:54:33;13.60;;;7.45;;
691;SDS011;328;50.086;8.576;2023-01-19T03:57:01;12.45;;;7.70;;
691;SDS011;328;50.086;8.576;2023-01-19T03:59:29;11.48;;;7.65;;
691;SDS011;328;50.086;8.576;2023-01-19T04:01:57;15.23;;;8.20;;
691;SDS011;328;50.086;8.576;2023-01-19T04:04:25;9.70;;;7.60;;
691;SDS011;328;50.086;8.576;2023-01-19T04:06:53;11.85;;;8.40;;
691;SDS011;328;50.086;8.576;2023-01-19T04:09:21;15.30;;;8.73;;
691;SDS011;328;50.086;8.576;2023-01-19T04:11:48;11.93;;;7.90;;
691;SDS011;328;50.086;8.576;2023-01-19T04:14:16;12.90;;;9.27;;
691;SDS011;328;50.086;8.576;2023-01-19T04:16:45;10.43;;;6.97;;
691;SDS011;328;50.086;8.576;2023-01-19T04:19:13;12.82;;;9.20;;
691;SDS011;328;50.086;8.576;2023-01-19T04:21:40;13.23;;;8.02;;
691;SDS011;328;50.086;8.576;2023-01-19T04:24:08;13.60;;;8.85;;
691;SDS011;328;50.086;8.576;2023-01-19T04:26:35;12.27;;;7.63;;
691;SDS011;328;50.086;8.576;2023-01-19T04:29:03;13.20;;;9.07;;
691;SDS011;328;50.086;8.576;2023-01-19T04:31:30;13.43;;;9.10;;
691;SDS011;328;50.086;8.576;2023-01-19T04:34:02;15.15;;;8.45;;
691;SDS011;328;50.086;8.576;2023-01-19T04:36:29;12.38;;;8.57;;
691;SDS011;328;50.086;8.576;2023-01-19T04:38:57;12.82;;;9.10;;
691;SDS011;328;50.086;8.576;2023-01-19T04:41:24;15.18;;;8.88;;
691;SDS011;328;50.086;8.576;2023-01-19T04:43:52;15.23;;;8.63;;
691;SDS011;328;50.086;8.576;2023-01-19T04:46:19;16.10;;;9.13;;
691;SDS011;328;50.086;8.576;2023-01-19T04:48:47;13.05;;;9.77;;
691;SDS011;328;50.086;8.576;2023-01-19T04:51:16;12.45;;;8.55;;
691;SDS011;328;50.086;8.576;2023-01-19T04:53:43;13.43;;;9.18;;
691;SDS011;328;50.086;8.576;2023-01-19T04:56:11;11.02;;;8.48;;
691;SDS011;328;50.086;8.576;2023-01-19T04:58:38;10.93;;;8.93;;
691;SDS011;328;50.086;8.576;2023-01-19T05:01:06;10.70;;;8.23;;
691;SDS011;328;50.086;8.576;2023-01-19T05:03:34;14.52;;;9.77;;
691;SDS011;328;50.086;8.576;2023-01-19T05:06:02;12.15;;;8.85;;
691;SDS011;328;50.086;8.576;2023-01-19T05:08:31;16.08;;;8.82;;
691;SDS011;328;50.086;8.576;2023-01-19T05:10:59;15.38;;;9.40;;
691;SDS011;328;50.086;8.576;2023-01-19T05:13:26;22.33;;;9.57;;
691;SDS011;328;50.086;8.576;2023-01-19T05:15:54;15.73;;;10.30;;
691;SDS011;328;50.086;8.576;2023-01-19T05:18:21;17.27;;;9.95;;
691;SDS011;328;50.086;8.576;2023-01-19T05:20:49;20.10;;;10.75;;
691;SDS011;328;50.086;8.576;2023-01-19T05:23:16;16.58;;;10.40;;
691;SDS011;328;50.086;8.576;2023-01-19T05:25:45;16.13;;;10.48;;
691;SDS011;328;50.086;8.576;2023-01-19T05:28:13;14.00;;;11.03;;
691;SDS011;328;50.086;8.576;2023-01-19T05:30:41;17.80;;;9.95;;
691;SDS011;328;50.086;8.576;2023-01-19T05:33:09;18.70;;;10.40;;
691;SDS011;328;50.086;8.576;2023-01-19T05:35:36;16.52;;;10.95;;
691;SDS011;328;50.086;8.576;2023-01-19T05:38:04;19.23;;;10.90;;
691;SDS011;328;50.086;8.576;2023-01-19T05:40:31;15.10;;;10.85;;
691;SDS011;328;50.086;8.576;2023-01-19T05:43:01;17.05;;;12.10;;
691;SDS011;328;50.086;8.576;2023-01-19T05:45:30;14.67;;;10.23;;
691;SDS011;328;50.086;8.576;2023-01-19T05:47:58;20.00;;;12.48;;
691;SDS011;328;50.086;8.576;2023-01-19T05:50:26;18.67;;;12.27;;
691;SDS011;328;50.086;8.576;2023-01-19T05:52:53;20.80;;;12.87;;
691;SDS011;328;50.086;8.576;2023-01-19T05:55:21;16.83;;;11.60;;
691;SDS011;328;50.086;8.576;2023-01-19T05:57:49;21.13;;;12.57;;
691;SDS011;328;50.086;8.576;2023-01-19T06:00:18;20.88;;;13.00;;
691;SDS011;328;50.086;8.576;2023-01-19T06:02:46;22.70;;;13.30;;
691;SDS011;328;50.086;8.576;2023-01-19T06:05:14;22.15;;;11.90;;
691;SDS011;328;50.086;8.576;2023-01-19T06:07:42;21.10;;;12.53;;
691;SDS011;328;50.086;8.576;2023-01-19T06:10:09;17.83;;;11.48;;
691;SDS011;328;50.086;8.576;2023-01-19T06:12:38;18.77;;;11.25;;
691;SDS011;328;50.086;8.576;2023-01-19T06:15:06;17.45;;;11.13;;
691;SDS011;328;50.086;8.576;2023-01-19T06:17:36;17.67;;;11.20;;
691;SDS011;328;50.086;8.576;2023-01-19T06:20:04;16.77;;;11.00;;
691;SDS011;328;50.086;8.576;2023-01-19T06:22:32;35.95;;;11.27;;
691;SDS011;328;50.086;8.576;2023-01-19T06:24:59;19.43;;;11.90;;
691;SDS011;328;50.086;8.576;2023-01-19T06:27:27;21.15;;;11.75;;
691;SDS011;328;50.086;8.576;2023-01-19T06:29:54;20.43;;;11.30;;
691;SDS011;328;50.086;8.576;2023-01-19T06:32:22;13.20;;;9.73;;
691;SDS011;328;50.086;8.576;2023-01-19T06:34:51;17.98;;;10.70;;
691;SDS011;328;50.086;8.576;2023-01-19T06:37:19;19.47;;;11.67;;
691;SDS011;328;50.086;8.576;2023-01-19T06:39:47;19.13;;;11.73;;
691;SDS011;328;50.086;8.576;2023-01-19T06:42:14;17.97;;;11.80;;
691;SDS011;328;50.086;8.576;2023-01-19T06:44:42;15.13;;;10.53;;
691;SDS011;328;50.086;8.576;2023-01-19T06:47:12;16.10;;;11.20;;
691;SDS011;328;50.086;8.576;2023-01-19T06:49:41;17.67;;;11.10;;
691;SDS011;328;50.086;8.576;2023-01-19T06:52:11;16.48;;;10.45;;
691;SDS011;328;50.086;8.576;2023-01-19T06:54:41;17.90;;;10.47;;
691;SDS011;328;50.086;8.576;2023-01-19T06:57:10;13.50;;;10.40;;
691;SDS011;328;50.086;8.576;2023-01-19T06:59:38;20.80;;;12.20;;
691;SDS011;328;50.086;8.576;2023-01-19T07:02:06;13.95;;;9.93;;
691;SDS011;328;50.086;8.576;2023-01-19T07:04:53;15.60;;;9.77;;
691;SDS011;328;50.086;8.576;2023-01-19T07:07:22;17.40;;;10.98;;
691;SDS011;328;50.086;8.576;2023-01-19T07:09:50;21.88;;;11.25;;
691;SDS011;328;50.086;8.576;2023-01-19T07:12:19;16.10;;;10.77;;
691;SDS011;328;50.086;8.576;2023-01-19T07:14:46;41.95;;;23.42;;
691;SDS011;328;50.086;8.576;2023-01-19T07:17:14;19.02;;;13.07;;
691;SDS011;328;50.086;8.576;2023-01-19T07:19:42;18.63;;;11.70;;
691;SDS011;328;50.086;8.576;2023-01-19T07:22:09;18.20;;;11.07;;
691;SDS011;328;50.086;8.576;2023-01-19T07:24:38;16.37;;;9.80;;
691;SDS011;328;50.086;8.576;2023-01-19T07:27:06;17.25;;;10.85;;
691;SDS011;328;50.086;8.576;2023-01-19T07:29:33;23.02;;;11.93;;
691;SDS011;328;50.086;8.576;2023-01-19T07:32:01;15.55;;;11.20;;
691;SDS011;328;50.086;8.576;2023-01-19T07:34:28;16.98;;;11.40;;
691;SDS011;328;50.086;8.576;2023-01-19T07:36:56;17.80;;;10.40;;
691;SDS011;328;50.086;8.576;2023-01-19T07:39:23;15.40;;;10.70;;
691;SDS011;328;50.086;8.576;2023-01-19T07:41:52;16.23;;;10.40;;
691;SDS011;328;50.086;8.576;2023-01-19T07:44:20;14.30;;;9.63;;
691;SDS011;328;50.086;8.576;2023-01-19T07:46:48;16.53;;;11.40;;
691;SDS011;328;50.086;8.576;2023-01-19T07:49:16;15.53;;;10.30;;
691;SDS011;328;50.086;8.576;2023-01-19T07:51:43;17.40;;;10.73;;
691;SDS011;328;50.086;8.576;2023-01-19T07:54:11;15.43;;;10.57;;
691;SDS011;328;50.086;8.576;2023-01-19T07:56:38;24.52;;;12.43;;
691;SDS011;328;50.086;8.576;2023-01-19T07:59:07;17.13;;;11.02;;
691;SDS011;328;50.086;8.576;2023-01-19T08:01:35;15.40;;;10.68;;
691;SDS011;328;50.086;8.576;2023-01-19T08:04:03;15.48;;;10.35;;
691;SDS011;328;50.086;8.576;2023-01-19T08:06:31;16.80;;;11.33;;
691;SDS011;328;50.086;8.576;2023-01-19T08:09:00;17.05;;;11.60;;
691;SDS011;328;50.086;8.576;2023-01-19T08:11:30;18.17;;;12.23;;
691;SDS011;328;50.086;8.576;2023-01-19T08:13:58;17.90;;;10.57;;
691;SDS011;328;50.086;8.576;2023-01-19T08:16:27;18.43;;;10.67;;
691;SDS011;328;50.086;8.576;2023-01-19T08:18:54;15.57;;;11.37;;
691;SDS011;328;50.086;8.576;2023-01-19T08:21:22;15.90;;;11.00;;
691;SDS011;328;50.086;8.576;2023-01-19T08:23:53;27.27;;;13.60;;
691;SDS011;328;50.086;8.576;2023-01-19T08:26:21;16.67;;;12.10;;
691;SDS011;328;50.086;8.576;2023-01-19T08:28:54;16.30;;;10.90;;
691;SDS011;328;50.086;8.576;2023-01-19T08:31:23;16.73;;;11.47;;
691;SDS011;328;50.086;8.576;2023-01-19T08:33:52;20.70;;;12.65;;
691;SDS011;328;50.086;8.576;2023-01-19T08:36:20;20.67;;;11.90;;
691;SDS011;328;50.086;8.576;2023-01-19T08:38:50;16.67;;;10.73;;
691;SDS011;328;50.086;8.576;2023-01-19T08:41:17;13.07;;;9.63;;
691;SDS011;328;50.086;8.576;2023-01-19T08:43:45;15.97;;;11.00;;
691;SDS011;328;50.086;8.576;2023-01-19T08:46:12;20.07;;;11.67;;
691;SDS011;328;50.086;8.576;2023-01-19T08:48:42;17.27;;;11.43;;
691;SDS011;328;50.086;8.576;2023-01-19T08:51:11;16.10;;;10.60;;
691;SDS011;328;50.086;8.576;2023-01-19T08:53:40;19.90;;;9.80;;
691;SDS011;328;50.086;8.576;2023-01-19T08:56:08;16.27;;;11.03;;
691;SDS011;328;50.086;8.576;2023-01-19T08:58:37;14.20;;;10.70;;
691;SDS011;328;50.086;8.576;2023-01-19T09:01:05;14.00;;;8.50;;
691;SDS011;328;50.086;8.576;2023-01-19T09:03:33;14.20;;;10.20;;
691;SDS011;328;50.086;8.576;2023-01-19T09:06:02;15.13;;;9.47;;
691;SDS011;328;50.086;8.576;2023-01-19T09:08:33;13.03;;;9.23;;
691;SDS011;328;50.086;8.576;2023-01-19T09:11:00;13.27;;;9.33;;
691;SDS011;328;50.086;8.576;2023-01-19T09:13:28;17.73;;;10.20;;
691;SDS011;328;50.086;8.576;2023-01-19T09:15:56;17.50;;;10.70;;
691;SDS011;328;50.086;8.576;2023-01-19T09:18:23;12.03;;;8.60;;
691;SDS011;328;50.086;8.576;2023-01-19T09:20:51;13.83;;;9.57;;
691;SDS011;328;50.086;8.576;2023-01-19T09:23:20;15.80;;;10.17;;
691;SDS011;328;50.086;8.576;2023-01-19T09:25:54;12.70;;;9.20;;
691;SDS011;328;50.086;8.576;2023-01-19T09:28:22;14.37;;;8.67;;
691;SDS011;328;50.086;8.576;2023-01-19T09:30:50;15.33;;;10.23;;
691;SDS011;328;50.086;8.576;2023-01-19T09:33:18;14.80;;;10.20;;
691;SDS011;328;50.086;8.576;2023-01-19T09:35:46;15.50;;;9.50;;
691;SDS011;328;50.086;8.576;2023-01-19T09:38:17;15.50;;;10.33;;
691;SDS011;328;50.086;8.576;2023-01-19T09:40:47;14.47;;;8.47;;
691;SDS011;328;50.086;8.576;2023-01-19T09:43:18;15.37;;;9.70;;
691;SDS011;328;50.086;8.576;2023-01-19T09:45:51;13.80;;;9.27;;
691;SDS011;328;50.086;8.576;2023-01-19T09:48:23;19.70;;;10.73;;
691;SDS011;328;50.086;8.576;2023-01-19T09:50:55;15.00;;;9.00;;
691;SDS011;328;50.086;8.576;2023-01-19T09:53:26;15.50;;;8.77;;
691;SDS011;328;50.086;8.576;2023-01-19T09:56:09;12.30;;;8.40;;
691;SDS011;328;50.086;8.576;2023-01-19T09:58:38;14.40;;;9.03;;
691;SDS011;328;50.086;8.576;2023-01-19T10:01:08;13.37;;;8.27;;
691;SDS011;328;50.086;8.576;2023-01-19T10:03:42;12.70;;;7.70;;
691;SDS011;328;50.086;8.576;2023-01-19T10:06:10;14.87;;;10.10;;
691;SDS011;328;50.086;8.576;2023-01-19T10:08:39;15.53;;;9.30;;
691;SDS011;328;50.086;8.576;2023-01-19T10:11:16;15.57;;;8.63;;
691;SDS011;328;50.086;8.576;2023-01-19T10:14:12;15.07;;;9.23;;
691;SDS011;328;50.086;8.576;2023-01-19T10:16:47;13.47;;;8.20;;
691;SDS011;328;50.086;8.576;2023-01-19T10:19:19;10.60;;;7.87;;
691;SDS011;328;50.086;8.576;2023-01-19T10:21:48;13.53;;;8.20;;
691;SDS011;328;50.086;8.576;2023-01-19T10:24:17;9.03;;;6.63;;
691;SDS011;328;50.086;8.576;2023-01-19T10:26:49;12.30;;;8.03;;
691;SDS011;328;50.086;8.576;2023-01-19T10:29:20;15.07;;;7.87;;
691;SDS011;328;50.086;8.576;2023-01-19T10:31:49;11.20;;;7.60;;
691;SDS011;328;50.086;8.576;2023-01-19T10:34:18;9.50;;;6.67;;
691;SDS011;328;50.086;8.576;2023-01-19T10:36:49;10.30;;;6.67;;
691;SDS011;328;50.086;8.576;2023-01-19T10:39:21;8.83;;;5.97;;
691;SDS011;328;50.086;8.576;2023-01-19T10:41:50;9.60;;;6.70;;
691;SDS011;328;50.086;8.576;2023-01-19T10:44:22;9.77;;;6.50;;
691;SDS011;328;50.086;8.576;2023-01-19T10:46:51;9.70;;;6.87;;
691;SDS011;328;50.086;8.576;2023-01-19T10:49:23;9.60;;;7.30;;
691;SDS011;328;50.086;8.576;2023-01-19T10:51:52;9.70;;;6.70;;
691;SDS011;328;50.086;8.576;2023-01-19T10:54:21;10.50;;;5.87;;
691;SDS011;328;50.086;8.576;2023-01-19T10:56:51;11.77;;;6.50;;
691;SDS011;328;50.086;8.576;2023-01-19T10:59:29;9.20;;;6.43;;
691;SDS011;328;50.086;8.576;2023-01-19T11:02:03;8.10;;;5.50;;
691;SDS011;328;50.086;8.576;2023-01-19T11:04:41;6.70;;;4.90;;
691;SDS011;328;50.086;8.576;2023-01-19T11:07:14;7.10;;;5.00;;
691;SDS011;328;50.086;8.576;2023-01-19T11:09:43;7.63;;;4.63;;
691;SDS011;328;50.086;8.576;2023-01-19T11:12:16;7.67;;;4.70;;
691;SDS011;328;50.086;8.576;2023-01-19T11:14:45;6.77;;;4.03;;
691;SDS011;328;50.086;8.576;2023-01-19T11:17:15;7.37;;;5.27;;
691;SDS011;328;50.086;8.576;2023-01-19T11:19:51;6.50;;;4.03;;
691;SDS011;328;50.086;8.576;2023-01-19T11:22:23;5.30;;;4.37;;
691;SDS011;328;50.086;8.576;2023-01-19T11:24:56;7.23;;;4.60;;
691;SDS011;328;50.086;8.576;2023-01-19T11:27:25;6.80;;;4.87;;
691;SDS011;328;50.086;8.576;2023-01-19T11:29:59;5.93;;;4.40;;
691;SDS011;328;50.086;8.576;2023-01-19T11:32:30;7.17;;;4.90;;
691;SDS011;328;50.086;8.576;2023-01-19T11:35:00;9.30;;;5.22;;
691;SDS011;328;50.086;8.576;2023-01-19T11:37:30;6.90;;;4.30;;
691;SDS011;328;50.086;8.576;2023-01-19T11:39:59;8.87;;;5.20;;
691;SDS011;328;50.086;8.576;2023-01-19T11:42:31;5.87;;;5.00;;
691;SDS011;328;50.086;8.576;2023-01-19T11:45:02;9.00;;;5.90;;
691;SDS011;328;50.086;8.576;2023-01-19T11:47:35;6.73;;;5.17;;
691;SDS011;328;50.086;8.576;2023-01-19T11:50:05;6.93;;;4.77;;
691;SDS011;328;50.086;8.576;2023-01-19T11:52:41;9.27;;;4.67;;
691;SDS011;328;50.086;8.576;2023-01-19T11:55:13;7.20;;;4.60;;
691;SDS011;328;50.086;8.576;2023-01-19T11:57:46;5.97;;;3.90;;
691;SDS011;328;50.086;8.576;2023-01-19T12:03:02;5.87;;;3.83;;
691;SDS011;328;50.086;8.576;2023-01-19T12:05:34;6.30;;;4.30;;
691;SDS011;328;50.086;8.576;2023-01-19T12:08:03;5.00;;;4.17;;
691;SDS011;328;50.086;8.576;2023-01-19T12:10:33;6.33;;;3.30;;
691;SDS011;328;50.086;8.576;2023-01-19T12:13:03;9.73;;;4.20;;
691;SDS011;328;50.086;8.576;2023-01-19T12:15:31;9.73;;;4.87;;
691;SDS011;328;50.086;8.576;2023-01-19T12:18:03;5.13;;;3.90;;
691;SDS011;328;50.086;8.576;2023-01-19T12:20:33;6.10;;;4.10;;
691;SDS011;328;50.086;8.576;2023-01-19T12:23:06;4.63;;;3.60;;
691;SDS011;328;50.086;8.576;2023-01-19T12:25:42;8.23;;;4.17;;
691;SDS011;328;50.086;8.576;2023-01-19T12:28:14;6.20;;;4.03;;
691;SDS011;328;50.086;8.576;2023-01-19T12:30:43;5.47;;;4.03;;
691;SDS011;328;50.086;8.576;2023-01-19T12:33:30;6.07;;;3.77;;
691;SDS011;328;50.086;8.576;2023-01-19T12:36:01;5.10;;;4.43;;
691;SDS011;328;50.086;8.576;2023-01-19T12:38:40;5.73;;;4.43;;
691;SDS011;328;50.086;8.576;2023-01-19T12:41:17;5.47;;;3.70;;
691;SDS011;328;50.086;8.576;2023-01-19T12:46:48;4.50;;;3.17;;
691;SDS011;328;50.086;8.576;2023-01-19T12:49:20;7.80;;;4.70;;
691;SDS011;328;50.086;8.576;2023-01-19T12:51:51;5.20;;;4.37;;
691;SDS011;328;50.086;8.576;2023-01-19T12:54:22;4.93;;;3.73;;
691;SDS011;328;50.086;8.576;2023-01-19T12:56:55;6.20;;;4.73;;
691;SDS011;328;50.086;8.576;2023-01-19T12:59:25;6.40;;;4.40;;
691;SDS011;328;50.086;8.576;2023-01-19T13:05:17;7.90;;;4.70;;
691;SDS011;328;50.086;8.576;2023-01-19T13:17:10;7.97;;;4.97;;
691;SDS011;328;50.086;8.576;2023-01-19T13:19:53;7.73;;;4.30;;
691;SDS011;328;50.086;8.576;2023-01-19T13:25:29;6.27;;;4.10;;
691;SDS011;328;50.086;8.576;2023-01-19T13:27:58;6.03;;;4.43;;
691;SDS011;328;50.086;8.576;2023-01-19T13:30:27;9.63;;;4.60;;
691;SDS011;328;50.086;8.576;2023-01-19T13:33:00;5.33;;;3.90;;
691;SDS011;328;50.086;8.576;2023-01-19T13:35:31;6.40;;;4.57;;
691;SDS011;328;50.086;8.576;2023-01-19T13:37:59;7.60;;;5.30;;
691;SDS011;328;50.086;8.576;2023-01-19T13:40:30;7.40;;;4.77;;
691;SDS011;328;50.086;8.576;2023-01-19T13:43:01;5.97;;;4.93;;
691;SDS011;328;50.086;8.576;2023-01-19T13:45:30;5.23;;;3.97;;
691;SDS011;328;50.086;8.576;2023-01-19T13:48:02;9.13;;;5.47;;
691;SDS011;328;50.086;8.576;2023-01-19T13:50:31;7.57;;;5.80;;
691;SDS011;328;50.086;8.576;2023-01-19T13:53:00;11.70;;;5.70;;
691;SDS011;328;50.086;8.576;2023-01-19T13:55:29;6.53;;;5.30;;
691;SDS011;328;50.086;8.576;2023-01-19T13:57:57;8.27;;;5.60;;
691;SDS011;328;50.086;8.576;2023-01-19T14:00:25;6.73;;;4.60;;
691;SDS011;328;50.086;8.576;2023-01-19T14:02:55;7.00;;;5.67;;
691;SDS011;328;50.086;8.576;2023-01-19T14:05:26;7.30;;;5.03;;
691;SDS011;328;50.086;8.576;2023-01-19T14:07:58;6.87;;;5.50;;
691;SDS011;328;50.086;8.576;2023-01-19T14:10:30;9.60;;;5.60;;
691;SDS011;328;50.086;8.576;2023-01-19T14:12:59;8.10;;;5.17;;
691;SDS011;328;50.086;8.576;2023-01-19T14:15:28;9.53;;;6.90;;
691;SDS011;328;50.086;8.576;2023-01-19T14:18:08;8.27;;;5.80;;
691;SDS011;328;50.086;8.576;2023-01-19T14:20:39;8.47;;;5.47;;
691;SDS011;328;50.086;8.576;2023-01-19T14:29:15;7.80;;;5.03;;
691;SDS011;328;50.086;8.576;2023-01-19T14:31:51;8.00;;;5.13;;
691;SDS011;328;50.086;8.576;2023-01-19T14:34:35;8.47;;;5.70;;
691;SDS011;328;50.086;8.576;2023-01-19T14:37:11;7.10;;;5.70;;
691;SDS011;328;50.086;8.576;2023-01-19T14:39:43;9.43;;;6.40;;
691;SDS011;328;50.086;8.576;2023-01-19T14:42:13;9.27;;;5.80;;
691;SDS011;328;50.086;8.576;2023-01-19T14:44:44;10.50;;;6.40;;
691;SDS011;328;50.086;8.576;2023-01-19T14:47:27;11.60;;;5.80;;
691;SDS011;328;50.086;8.576;2023-01-19T14:49:59;9.57;;;6.47;;
691;SDS011;328;50.086;8.576;2023-01-19T14:52:32;7.90;;;5.67;;
691;SDS011;328;50.086;8.576;2023-01-19T14:55:01;7.90;;;5.13;;
691;SDS011;328;50.086;8.576;2023-01-19T14:57:32;6.70;;;5.37;;
691;SDS011;328;50.086;8.576;2023-01-19T15:00:01;8.37;;;5.67;;
691;SDS011;328;50.086;8.576;2023-01-19T15:02:36;7.53;;;5.83;;
691;SDS011;328;50.086;8.576;2023-01-19T15:05:04;8.20;;;5.90;;
691;SDS011;328;50.086;8.576;2023-01-19T15:07:35;11.50;;;6.80;;
691;SDS011;328;50.086;8.576;2023-01-19T15:10:03;11.93;;;6.13;;
691;SDS011;328;50.086;8.576;2023-01-19T15:12:31;11.37;;;7.00;;
691;SDS011;328;50.086;8.576;2023-01-19T15:14:59;11.80;;;5.57;;
691;SDS011;328;50.086;8.576;2023-01-19T15:17:27;7.20;;;4.90;;
691;SDS011;328;50.086;8.576;2023-01-19T15:19:54;8.30;;;5.50;;
691;SDS011;328;50.086;8.576;2023-01-19T15:22:24;8.70;;;6.07;;
691;SDS011;328;50.086;8.576;2023-01-19T15:24:54;13.33;;;6.57;;
691;SDS011;328;50.086;8.576;2023-01-19T15:27:25;10.20;;;6.53;;
691;SDS011;328;50.086;8.576;2023-01-19T15:29:53;9.73;;;6.67;;
691;SDS011;328;50.086;8.576;2023-01-19T15:32:20;10.10;;;7.23;;
691;SDS011;328;50.086;8.576;2023-01-19T15:34:48;9.87;;;7.00;;
691;SDS011;328;50.086;8.576;2023-01-19T15:37:15;15.63;;;7.93;;
691;SDS011;328;50.086;8.576;2023-01-19T15:39:43;12.10;;;7.87;;
691;SDS011;328;50.086;8.576;2023-01-19T15:42:12;12.20;;;7.50;;
691;SDS011;328;50.086;8.576;2023-01-19T15:44:41;12.83;;;8.43;;
691;SDS011;328;50.086;8.576;2023-01-19T15:47:10;13.57;;;8.23;;
691;SDS011;328;50.086;8.576;2023-01-19T15:49:37;8.97;;;6.80;;
691;SDS011;328;50.086;8.576;2023-01-19T15:52:05;14.80;;;7.10;;
691;SDS011;328;50.086;8.576;2023-01-19T15:54:33;12.43;;;6.80;;
691;SDS011;328;50.086;8.576;2023-01-19T15:57:00;9.90;;;6.63;;
691;SDS011;328;50.086;8.576;2023-01-19T15:59:29;8.80;;;7.10;;
691;SDS011;328;50.086;8.576;2023-01-19T16:01:57;8.87;;;6.13;;
691;SDS011;328;50.086;8.576;2023-01-19T16:04:25;10.47;;;5.97;;
691;SDS011;328;50.086;8.576;2023-01-19T16:06:53;10.17;;;6.50;;
691;SDS011;328;50.086;8.576;2023-01-19T16:09:20;10.13;;;6.67;;
691;SDS011;328;50.086;8.576;2023-01-19T16:11:48;11.70;;;6.80;;
691;SDS011;328;50.086;8.576;2023-01-19T16:14:16;9.73;;;5.97;;
691;SDS011;328;50.086;8.576;2023-01-19T16:16:45;8.07;;;6.03;;